createdAt,value
2023-12-09T00:01:46.901Z,13.68
2023-12-09T00:06:49.987Z,12.95
2023-12-09T00:11:52.424Z,12.18
2023-12-09T00:16:54.472Z,13.52
2023-12-09T00:21:56.548Z,13.45
2023-12-09T00:26:58.641Z,11.60
2023-12-09T00:32:00.705Z,10.63
2023-12-09T00:37:02.824Z,12.70
2023-12-09T00:42:05.327Z,12.60
2023-12-09T00:47:07.341Z,11.68
2023-12-09T00:52:09.509Z,13.35
2023-12-09T00:57:11.663Z,12.23
2023-12-09T01:02:14.000Z,12.85
2023-12-09T01:07:16.091Z,9.95
2023-12-09T01:12:18.396Z,10.73
2023-12-09T01:17:20.744Z,12.93
2023-12-09T01:22:22.809Z,10.30
2023-12-09T01:27:25.080Z,10.93
2023-12-09T01:32:27.521Z,14.07
2023-12-09T01:37:29.704Z,13.38
2023-12-09T01:42:31.982Z,11.85
2023-12-09T01:47:34.259Z,12.73
2023-12-09T01:52:36.340Z,12.98
2023-12-09T01:57:38.502Z,10.75
2023-12-09T02:02:40.687Z,11.82
2023-12-09T02:07:42.909Z,12.18
2023-12-09T02:12:53.973Z,13.63
2023-12-09T02:18:05.838Z,13.27
2023-12-09T02:23:27.886Z,11.50
2023-12-09T02:28:30.041Z,14.75
2023-12-09T02:33:32.368Z,12.55
2023-12-09T02:38:34.489Z,11.35
2023-12-09T02:43:37.734Z,10.70
2023-12-09T02:48:39.947Z,12.57
2023-12-09T02:53:42.138Z,11.32
2023-12-09T02:58:44.301Z,10.55
2023-12-09T03:03:46.636Z,10.70
2023-12-09T03:08:48.748Z,10.73
2023-12-09T03:13:50.814Z,11.95
2023-12-09T03:18:53.111Z,12.55
2023-12-09T03:23:55.279Z,13.77
2023-12-09T03:28:57.411Z,12.38
2023-12-09T03:33:59.759Z,10.48
2023-12-09T03:39:01.939Z,9.15
2023-12-09T03:44:04.345Z,11.35
2023-12-09T03:49:06.435Z,12.15
2023-12-09T03:54:08.611Z,10.88
2023-12-09T03:59:10.724Z,8.77
2023-12-09T04:04:12.888Z,12.05
2023-12-09T04:09:15.070Z,11.73
2023-12-09T04:14:17.129Z,10.38
2023-12-09T04:19:19.474Z,13.18
2023-12-09T04:24:21.779Z,12.13
2023-12-09T04:29:24.113Z,12.20
2023-12-09T04:34:26.162Z,13.00
2023-12-09T04:39:28.401Z,11.40
2023-12-09T04:44:30.533Z,9.60
2023-12-09T04:49:32.652Z,11.18
2023-12-09T04:54:34.921Z,8.25
2023-12-09T04:59:37.179Z,9.43
2023-12-09T05:04:39.323Z,11.52
2023-12-09T05:09:41.584Z,8.13
2023-12-09T05:14:43.770Z,10.43
2023-12-09T05:19:45.852Z,9.88
2023-12-09T05:24:47.832Z,10.80
2023-12-09T05:29:50.337Z,10.20
2023-12-09T05:34:52.350Z,8.75
2023-12-09T05:39:54.314Z,10.65
2023-12-09T05:44:56.530Z,9.02
2023-12-09T05:49:58.782Z,10.15
2023-12-09T05:55:00.900Z,10.27
2023-12-09T06:00:02.998Z,6.60
2023-12-09T06:05:06.988Z,8.25
2023-12-09T06:10:09.678Z,9.80
2023-12-09T06:15:11.730Z,10.35
2023-12-09T06:20:14.913Z,8.85
2023-12-09T06:25:17.254Z,11.40
2023-12-09T06:30:19.455Z,10.25
2023-12-09T06:35:21.527Z,9.25
2023-12-09T06:40:24.159Z,9.55
2023-12-09T06:45:26.246Z,11.55
2023-12-09T06:50:28.519Z,10.75
2023-12-09T06:55:30.665Z,10.20
2023-12-09T07:00:32.915Z,11.18
2023-12-09T07:05:35.146Z,10.05
2023-12-09T07:10:37.281Z,9.40
2023-12-09T07:15:39.450Z,9.45
2023-12-09T07:20:41.558Z,9.75
2023-12-09T07:25:43.784Z,9.07
2023-12-09T07:30:45.797Z,10.20
2023-12-09T07:35:47.949Z,9.75
2023-12-09T07:40:50.048Z,12.02
2023-12-09T07:45:52.110Z,9.77
2023-12-09T07:50:54.289Z,9.57
2023-12-09T07:55:56.572Z,9.27
2023-12-09T08:01:00.694Z,8.38
2023-12-09T08:06:03.088Z,9.77
2023-12-09T08:11:06.297Z,8.98
2023-12-09T08:16:09.254Z,9.38
2023-12-09T08:21:11.458Z,10.65
2023-12-09T08:26:18.088Z,11.07
2023-12-09T08:31:20.322Z,8.95
2023-12-09T08:36:22.577Z,10.30
2023-12-09T08:41:26.245Z,9.38
2023-12-09T08:46:29.586Z,11.23
2023-12-09T08:51:32.049Z,9.25
2023-12-09T08:56:34.431Z,10.98
2023-12-09T09:01:37.222Z,8.82
2023-12-09T09:06:39.711Z,9.32
2023-12-09T09:11:42.062Z,11.23
2023-12-09T09:16:44.154Z,10.98
2023-12-09T09:21:47.908Z,10.70
2023-12-09T09:26:50.177Z,10.43
2023-12-09T09:31:53.081Z,9.15
2023-12-09T09:36:55.215Z,10.30
2023-12-09T09:42:03.320Z,10.05
2023-12-09T09:47:05.472Z,8.55
2023-12-09T09:52:07.510Z,8.32
2023-12-09T09:57:09.976Z,10.80
2023-12-09T10:02:12.299Z,11.18
2023-12-09T10:07:14.689Z,10.32
2023-12-09T10:12:16.957Z,8.50
2023-12-09T10:17:19.997Z,11.05
2023-12-09T10:22:22.389Z,9.38
2023-12-09T10:27:25.593Z,9.60
2023-12-09T10:32:28.535Z,9.48
2023-12-09T10:37:31.024Z,10.13
2023-12-09T10:42:33.323Z,11.90
2023-12-09T10:47:35.852Z,8.40
2023-12-09T10:52:39.345Z,9.77
2023-12-09T10:57:42.085Z,9.00
2023-12-09T11:02:45.543Z,8.55
2023-12-09T11:07:48.322Z,8.93
2023-12-09T11:12:50.512Z,10.82
2023-12-09T11:17:55.171Z,9.65
2023-12-09T11:22:58.220Z,8.98
2023-12-09T11:28:00.364Z,6.90
2023-12-09T11:33:03.383Z,9.63
2023-12-09T11:38:07.182Z,9.65
2023-12-09T11:43:09.685Z,7.85
2023-12-09T11:48:12.239Z,8.90
2023-12-09T11:53:14.386Z,9.95
2023-12-09T11:58:16.671Z,9.05
2023-12-09T12:03:18.793Z,9.07
2023-12-09T12:08:21.472Z,8.30
2023-12-09T12:13:23.668Z,8.35
2023-12-09T12:18:26.007Z,6.13
2023-12-09T12:23:32.795Z,8.93
2023-12-09T12:28:35.354Z,9.85
2023-12-09T12:33:37.798Z,9.88
2023-12-09T12:38:40.141Z,8.95
2023-12-09T12:43:42.626Z,7.13
2023-12-09T12:48:45.025Z,8.85
2023-12-09T12:53:47.247Z,8.75
2023-12-09T12:58:49.356Z,8.18
2023-12-09T13:03:51.561Z,8.50
2023-12-09T13:08:53.530Z,8.38
2023-12-09T13:13:55.786Z,9.85
2023-12-09T13:18:58.733Z,9.70
2023-12-09T13:24:01.516Z,8.45
2023-12-09T13:29:03.786Z,7.95
2023-12-09T13:34:06.477Z,9.57
2023-12-09T13:39:08.679Z,8.38
2023-12-09T13:44:10.682Z,8.57
2023-12-09T13:49:13.987Z,7.35
2023-12-09T13:54:16.802Z,10.75
2023-12-09T13:59:18.860Z,8.18
2023-12-09T14:04:20.972Z,7.75
2023-12-09T14:09:23.223Z,7.22
2023-12-09T14:14:25.356Z,8.52
2023-12-09T14:19:27.447Z,8.35
2023-12-09T14:24:29.758Z,10.88
2023-12-09T14:29:31.738Z,9.15
2023-12-09T14:34:34.172Z,7.63
2023-12-09T14:39:36.583Z,8.95
2023-12-09T14:44:38.787Z,8.13
2023-12-09T14:49:41.256Z,6.85
2023-12-09T14:54:43.568Z,6.85
2023-12-09T14:59:45.745Z,8.73
2023-12-09T15:04:48.188Z,9.98
2023-12-09T15:09:50.565Z,7.78
2023-12-09T15:14:52.788Z,7.72
2023-12-09T15:19:55.129Z,8.07
2023-12-09T15:24:57.177Z,9.30
2023-12-09T15:29:59.220Z,9.57
2023-12-09T15:35:01.434Z,7.95
2023-12-09T15:40:06.609Z,8.48
2023-12-09T15:45:09.462Z,7.50
2023-12-09T15:50:11.864Z,9.82
2023-12-09T15:55:14.032Z,7.07
2023-12-09T16:00:17.603Z,8.05
2023-12-09T16:05:20.042Z,7.38
2023-12-09T16:10:22.338Z,8.65
2023-12-09T16:15:24.518Z,8.23
2023-12-09T16:20:26.710Z,8.25
2023-12-09T16:25:28.770Z,8.50
2023-12-09T16:30:31.012Z,8.10
2023-12-09T16:35:33.380Z,9.27
2023-12-09T16:40:35.384Z,8.40
2023-12-09T16:45:37.436Z,9.23
2023-12-09T16:50:39.596Z,8.73
2023-12-09T16:55:42.913Z,7.18
2023-12-09T17:00:45.087Z,7.82
2023-12-09T17:05:47.461Z,9.25
2023-12-09T17:10:49.561Z,8.00
2023-12-09T17:15:51.733Z,8.48
2023-12-09T17:20:53.901Z,7.57
2023-12-09T17:25:56.085Z,7.97
2023-12-09T17:30:58.228Z,7.80
2023-12-09T17:36:00.508Z,6.93
2023-12-09T17:41:02.639Z,8.02
2023-12-09T17:46:04.941Z,7.78
2023-12-09T17:51:07.086Z,7.03
2023-12-09T17:56:09.742Z,8.75
2023-12-09T18:01:12.359Z,8.27
2023-12-09T18:06:15.226Z,7.30
2023-12-09T18:11:17.381Z,8.45
2023-12-09T18:16:19.446Z,10.60
2023-12-09T18:21:21.667Z,7.68
2023-12-09T18:26:23.715Z,8.18
2023-12-09T18:31:25.927Z,8.93
2023-12-09T18:36:28.497Z,8.63
2023-12-09T18:41:30.811Z,6.55
2023-12-09T18:46:33.085Z,8.48
2023-12-09T18:51:35.493Z,9.27
2023-12-09T18:56:37.768Z,8.98
2023-12-09T19:01:40.110Z,6.72
2023-12-09T19:06:53.498Z,8.88
2023-12-09T19:11:59.024Z,9.75
2023-12-09T19:17:01.288Z,9.18
2023-12-09T19:22:03.397Z,9.13
2023-12-09T19:27:05.842Z,9.43
2023-12-09T19:32:08.182Z,8.48
2023-12-09T19:37:10.198Z,9.07
2023-12-09T19:42:12.352Z,9.25
2023-12-09T19:47:14.542Z,8.40
2023-12-09T19:52:16.723Z,10.38
2023-12-09T19:57:19.202Z,8.57
2023-12-09T20:02:21.541Z,9.85
2023-12-09T20:07:23.773Z,8.00
2023-12-09T20:12:26.350Z,8.38
2023-12-09T20:17:28.783Z,11.20
2023-12-09T20:22:31.416Z,9.43
2023-12-09T20:27:33.991Z,8.40
2023-12-09T20:32:36.398Z,7.85
2023-12-09T20:37:38.626Z,9.32
2023-12-09T20:42:40.960Z,8.82
2023-12-09T20:47:43.081Z,9.68
2023-12-09T20:52:45.342Z,9.95
2023-12-09T20:57:47.525Z,9.38
2023-12-09T21:02:49.734Z,8.90
2023-12-09T21:07:51.959Z,9.23
2023-12-09T21:12:54.191Z,9.80
2023-12-09T21:17:56.605Z,9.02
2023-12-09T21:22:58.793Z,8.73
2023-12-09T21:28:00.851Z,6.72
2023-12-09T21:33:03.045Z,9.65
2023-12-09T21:38:05.224Z,8.75
2023-12-09T21:43:07.697Z,9.82
2023-12-09T21:48:10.499Z,8.32
2023-12-09T21:53:12.889Z,9.88
2023-12-09T21:58:15.047Z,8.55
2023-12-09T22:03:17.268Z,10.15
2023-12-09T22:08:19.371Z,10.15
2023-12-09T22:13:21.513Z,8.73
2023-12-09T22:18:23.790Z,10.05
2023-12-09T22:23:25.975Z,7.38
2023-12-09T22:28:30.902Z,8.93
2023-12-09T22:33:33.341Z,11.00
2023-12-09T22:38:35.493Z,8.90
2023-12-09T22:43:37.752Z,10.13
2023-12-09T22:48:40.033Z,11.13
2023-12-09T22:53:42.392Z,11.18
2023-12-09T22:58:44.579Z,9.73
2023-12-09T23:03:46.743Z,10.63
2023-12-09T23:08:48.985Z,10.35
2023-12-09T23:13:51.199Z,12.43
2023-12-09T23:18:53.547Z,9.55
2023-12-09T23:23:55.799Z,11.05
2023-12-09T23:28:57.952Z,10.05
2023-12-09T23:34:00.486Z,9.75
2023-12-09T23:39:02.812Z,11.57
2023-12-09T23:44:05.241Z,10.40
2023-12-09T23:49:07.611Z,9.68
2023-12-09T23:54:09.891Z,11.68
2023-12-09T23:59:11.942Z,11.30
